Time;durP1;ratioP1;P1;durP2;ratioP2;P2;SDS_P1;SDS_P2;PMS_P1;PMS_P2;Temp;Humidity;BMP_temperature;BMP_pressure;BME280_temperature;BME280_humidity;BME280_pressure;Samples;Min_cycle;Max_cycle;Signal;HPM_P1;HPM_P2
2021/11/14 13:12:47;;;;;;;78.97;38.33;;;;;;;8.54;100.00;99587.02;1765195;79;23037;-62
2021/11/14 13:15:13;;;;;;;73.93;39.73;;;;;;;8.46;100.00;99591.02;1757684;81;21009;-73
2021/11/14 13:17:52;;;;;;;66.40;35.00;;;;;;;8.45;100.00;99601.59;1723722;81;20976;-59
2021/11/14 13:20:21;;;;;;;69.47;37.13;;;;;;;8.38;100.00;99594.47;1745098;81;21044;-63
2021/11/14 13:22:50;;;;;;;73.53;39.60;;;;;;;8.41;100.00;99593.84;1737882;81;21091;-61
2021/11/14 13:25:23;;;;;;;71.82;38.65;;;;;;;8.39;100.00;99592.83;1742789;81;21052;-72
2021/11/14 13:27:51;;;;;;;75.37;39.20;;;;;;;8.42;100.00;99598.95;1754112;81;21019;-64
2021/11/14 13:30:16;;;;;;;63.38;34.95;;;;;;;8.49;100.00;99595.80;1743096;81;21513;-67
2021/11/14 13:32:42;;;;;;;63.83;34.92;;;;;;;8.54;100.00;99591.63;1747876;81;21023;-64
2021/11/14 13:35:08;;;;;;;65.50;34.93;;;;;;;8.56;100.00;99598.86;1747211;81;20992;-67
2021/11/14 13:37:35;;;;;;;71.12;38.08;;;;;;;8.59;100.00;99601.73;1738552;81;21499;-66
2021/11/14 13:40:09;;;;;;;58.73;30.52;;;;;;;8.71;100.00;99601.96;1741817;81;21524;-65
2021/11/14 13:42:44;;;;;;;67.03;32.17;;;;;;;8.80;100.00;99612.83;1742971;81;21512;-64
2021/11/14 13:45:17;;;;;;;61.68;31.52;;;;;;;8.81;100.00;99612.28;1737018;81;20969;-66
2021/11/14 13:47:46;;;;;;;61.13;30.10;;;;;;;8.85;100.00;99615.95;1725325;83;21483;-69
2021/11/14 13:50:29;;;;;;;55.78;31.62;;;;;;;8.90;100.00;99620.66;1725511;83;21022;-64
2021/11/14 13:53:04;;;;;;;57.93;30.27;;;;;;;8.94;100.00;99619.47;1751760;81;21006;-66
2021/11/14 13:55:47;;;;;;;55.80;29.63;;;;;;;8.92;100.00;99622.51;1738139;81;21483;-63
2021/11/14 13:58:13;;;;;;;58.00;30.65;;;;;;;8.89;100.00;99619.05;1752556;81;20966;-66
2021/11/14 14:00:39;;;;;;;55.00;29.20;;;;;;;8.91;100.00;99625.52;1761330;81;20994;-68
2021/11/14 14:03:24;;;;;;;49.60;27.90;;;;;;;8.89;100.00;99621.76;1730878;81;20986;-64
2021/11/14 14:05:51;;;;;;;54.13;27.02;;;;;;;8.87;100.00;99626.70;1761226;81;20974;-67
2021/11/14 14:08:32;;;;;;;53.10;26.87;;;;;;;8.83;100.00;99631.68;1761300;81;21005;-65
2021/11/14 14:11:00;;;;;;;51.73;26.70;;;;;;;8.77;100.00;99631.59;1758531;81;21050;-63
2021/11/14 14:13:26;;;;;;;59.05;29.00;;;;;;;8.71;100.00;99633.61;1748324;82;20943;-67
2021/11/14 14:15:52;;;;;;;53.08;29.00;;;;;;;8.70;100.00;99633.36;1748190;82;21013;-67
2021/11/14 14:18:20;;;;;;;53.48;27.87;;;;;;;8.67;100.00;99637.49;1748261;82;20990;-66
2021/11/14 14:20:56;;;;;;;54.55;29.57;;;;;;;8.76;100.00;99640.25;1748151;82;21025;-67
2021/11/14 14:23:25;;;;;;;52.23;27.48;;;;;;;8.67;100.00;99643.45;1747708;82;21021;-67
2021/11/14 14:25:51;;;;;;;46.95;26.55;;;;;;;8.69;100.00;99645.31;1747728;82;20943;-69
2021/11/14 14:28:20;;;;;;;52.75;27.45;;;;;;;8.64;100.00;99650.84;1747630;82;20963;-65
2021/11/14 14:30:47;;;;;;;46.92;27.55;;;;;;;8.59;100.00;99654.47;1748146;82;21410;-64
2021/11/14 14:33:18;;;;;;;48.60;27.07;;;;;;;8.55;100.00;99654.84;1747703;82;20970;-66
2021/11/14 14:35:52;;;;;;;45.10;24.15;;;;;;;8.54;100.00;99650.56;1748231;82;21402;-66
2021/11/14 14:38:20;;;;;;;46.68;25.50;;;;;;;8.49;100.00;99656.64;1739019;82;21480;-66
2021/11/14 14:40:53;;;;;;;49.15;27.37;;;;;;;8.45;100.00;99658.36;1733182;82;21006;-68
2021/11/14 14:43:27;;;;;;;48.08;24.98;;;;;;;8.49;100.00;99667.45;1733226;82;21013;-65
2021/11/14 14:45:58;;;;;;;45.30;25.37;;;;;;;8.54;100.00;99665.98;1730055;82;21004;-67
2021/11/14 14:48:34;;;;;;;42.83;23.87;;;;;;;8.53;100.00;99665.18;1734578;82;21027;-67
2021/11/14 14:51:09;;;;;;;49.27;26.12;;;;;;;8.52;100.00;99673.59;1735532;82;21006;-67
2021/11/14 14:53:42;;;;;;;50.85;25.60;;;;;;;8.51;100.00;99673.36;1731044;82;21492;-67
2021/11/14 14:56:13;;;;;;;43.05;25.65;;;;;;;8.52;100.00;99677.64;1724896;82;20963;-66
2021/11/14 14:59:06;;;;;;;53.78;26.23;;;;;;;8.44;100.00;99679.73;1737041;82;21468;-66
2021/11/14 15:01:43;;;;;;;51.25;26.93;;;;;;;8.35;100.00;99684.30;1747652;82;21007;-66
2021/11/14 15:04:21;;;;;;;45.50;24.82;;;;;;;8.28;100.00;99679.30;1731491;82;20964;-65
2021/11/14 15:06:55;;;;;;;46.80;25.72;;;;;;;8.24;100.00;99683.16;1734926;82;21031;-66
2021/11/14 15:09:31;;;;;;;43.92;25.97;;;;;;;8.20;100.00;99681.37;1718053;82;21458;-66
2021/11/14 15:12:04;;;;;;;49.23;25.55;;;;;;;8.19;100.00;99683.27;1733941;82;21035;-67
2021/11/14 15:14:38;;;;;;;52.33;28.65;;;;;;;8.16;100.00;99677.69;1734133;82;20963;-67
2021/11/14 15:17:33;;;;;;;47.40;25.83;;;;;;;8.16;100.00;99686.59;1745591;82;21466;-68
2021/11/14 15:20:06;;;;;;;52.23;26.07;;;;;;;8.14;100.00;99685.28;1739195;82;21012;-67
2021/11/14 15:22:39;;;;;;;49.48;27.80;;;;;;;8.02;100.00;99683.70;1653930;86;21102;-65
2021/11/14 15:25:15;;;;;;;44.00;23.35;;;;;;;8.02;100.00;99697.20;1654022;86;21007;-65
2021/11/14 15:27:44;;;;;;;50.23;26.55;;;;;;;7.93;100.00;99700.37;1678590;85;21059;-65
2021/11/14 15:30:14;;;;;;;49.13;25.97;;;;;;;7.83;100.00;99710.86;1685699;85;20984;-64
2021/11/14 15:32:40;;;;;;;50.67;27.22;;;;;;;7.76;100.00;99719.92;1662481;85;21065;-62
2021/11/14 15:35:07;;;;;;;50.30;27.10;;;;;;;7.72;100.00;99719.70;1654259;86;21001;-66
2021/11/14 15:37:33;;;;;;;47.87;26.70;;;;;;;7.76;100.00;99718.57;1679845;84;21013;-65
2021/11/14 15:39:59;;;;;;;52.73;28.73;;;;;;;7.78;100.00;99721.75;1655710;86;21036;-65
2021/11/14 15:42:26;;;;;;;49.90;26.13;;;;;;;7.77;100.00;99726.35;1655505;86;20997;-66
2021/11/14 15:44:52;;;;;;;51.17;27.63;;;;;;;7.73;100.00;99727.25;1654651;86;21509;-66
2021/11/14 15:47:18;;;;;;;53.17;29.45;;;;;;;7.67;100.00;99733.87;1654429;86;21036;-65
2021/11/14 15:49:44;;;;;;;51.33;29.80;;;;;;;7.64;100.00;99731.78;1654083;86;21079;-68
2021/11/14 15:52:10;;;;;;;58.03;31.80;;;;;;;7.62;100.00;99741.52;1654405;86;21066;-66
2021/11/14 15:54:36;;;;;;;54.13;29.23;;;;;;;7.62;100.00;99746.11;1655188;86;21031;-66
2021/11/14 15:57:03;;;;;;;57.83;29.90;;;;;;;7.71;100.00;99749.72;1654339;86;21039;-66
2021/11/14 15:59:31;;;;;;;62.83;32.60;;;;;;;7.77;100.00;99748.50;1653093;82;21477;-67
2021/11/14 16:01:57;;;;;;;51.53;29.37;;;;;;;7.80;100.00;99748.47;1744082;82;21015;-67
2021/11/14 16:04:23;;;;;;;58.33;31.40;;;;;;;7.80;100.00;99749.82;1745859;82;21023;-66
2021/11/14 16:06:49;;;;;;;64.70;32.03;;;;;;;7.72;100.00;99754.80;1748269;82;20930;-66
2021/11/14 16:09:14;;;;;;;57.03;30.93;;;;;;;7.70;100.00;99754.31;1734467;82;20974;-65
2021/11/14 16:11:41;;;;;;;60.07;33.03;;;;;;;7.69;100.00;99755.41;1742904;82;21040;-64
2021/11/14 16:14:09;;;;;;;59.53;31.63;;;;;;;7.65;100.00;99760.36;1741069;82;21000;-66
2021/11/14 16:16:35;;;;;;;54.87;31.07;;;;;;;7.69;100.00;99764.05;1730475;82;21526;-66
2021/11/14 16:19:01;;;;;;;61.90;32.07;;;;;;;7.66;100.00;99764.66;1733730;82;21011;-66
2021/11/14 16:21:27;;;;;;;54.10;29.37;;;;;;;7.64;100.00;99764.18;1735184;82;21024;-68
2021/11/14 16:23:53;;;;;;;56.57;30.50;;;;;;;7.66;100.00;99770.06;1731322;82;21519;-67
2021/11/14 16:26:19;;;;;;;64.20;32.33;;;;;;;7.68;100.00;99775.98;1731475;82;21530;-64
2021/11/14 16:28:44;;;;;;;54.90;30.27;;;;;;;7.64;100.00;99769.03;1718951;82;20959;-66
2021/11/14 16:31:11;;;;;;;55.30;31.40;;;;;;;7.66;100.00;99780.32;1735056;82;21058;-66
2021/11/14 16:33:37;;;;;;;58.07;31.17;;;;;;;7.63;100.00;99775.53;1711981;84;20995;-65
2021/11/14 16:36:03;;;;;;;59.80;32.30;;;;;;;7.57;100.00;99781.33;1711989;83;21040;-66
2021/11/14 16:38:29;;;;;;;61.70;32.73;;;;;;;7.55;100.00;99785.67;1715653;84;20980;-66
2021/11/14 16:40:56;;;;;;;59.03;31.80;;;;;;;7.52;100.00;99790.87;1711886;83;21051;-66
2021/11/14 16:43:21;;;;;;;66.63;34.20;;;;;;;7.48;100.00;99785.27;1711884;84;21114;-67
2021/11/14 16:45:47;;;;;;;58.73;32.37;;;;;;;7.52;100.00;99795.72;1711969;84;21507;-67
2021/11/14 16:48:20;;;;;;;62.87;33.33;;;;;;;7.54;100.00;99802.16;1711891;84;21023;-66
2021/11/14 16:50:47;;;;;;;59.63;31.17;;;;;;;7.52;100.00;99799.77;1711856;84;21464;-65
2021/11/14 16:53:13;;;;;;;59.03;32.23;;;;;;;7.51;100.00;99803.56;1711893;84;20988;-64
2021/11/14 16:55:39;;;;;;;59.60;31.83;;;;;;;7.53;100.00;99798.68;1714135;82;20963;-66
2021/11/14 16:58:05;;;;;;;60.33;32.87;;;;;;;7.48;100.00;99798.77;1671323;83;21216;-65
2021/11/14 17:00:31;;;;;;;61.53;32.90;;;;;;;7.46;100.00;99806.92;1716350;83;21042;-64
2021/11/14 17:02:57;;;;;;;66.23;36.00;;;;;;;7.43;100.00;99808.84;1716537;83;20999;-67
2021/11/14 17:05:23;;;;;;;69.22;36.40;;;;;;;7.42;100.00;99811.31;1716356;83;21526;-65
2021/11/14 17:07:50;;;;;;;68.67;34.40;;;;;;;7.48;100.00;99812.80;1695386;83;21031;-66
2021/11/14 17:10:16;;;;;;;61.27;33.13;;;;;;;7.52;100.00;99815.16;1716523;83;21461;-67
2021/11/14 17:12:43;;;;;;;68.60;36.50;;;;;;;7.54;100.00;99821.85;1720735;83;21070;-66
2021/11/14 17:15:09;;;;;;;64.07;33.97;;;;;;;7.57;100.00;99823.95;1723979;83;21023;-66
2021/11/14 17:17:35;;;;;;;65.77;34.80;;;;;;;7.59;100.00;99823.12;1724253;83;21463;-67
2021/11/14 17:20:01;;;;;;;68.43;38.37;;;;;;;7.60;100.00;99823.92;1724165;83;21085;-67
2021/11/14 17:22:28;;;;;;;68.10;37.00;;;;;;;7.56;100.00;99821.02;1724095;83;21010;-67
2021/11/14 17:24:53;;;;;;;68.23;36.60;;;;;;;7.55;100.00;99823.46;1723846;83;21070;-68
2021/11/14 17:27:21;;;;;;;62.23;35.17;;;;;;;7.51;100.00;99827.86;1724282;83;21585;-69
2021/11/14 17:29:47;;;;;;;70.10;38.93;;;;;;;7.48;100.00;99831.70;1724306;83;21042;-66
2021/11/14 17:32:13;;;;;;;65.33;36.63;;;;;;;7.40;100.00;99832.38;1724154;83;21023;-67
2021/11/14 17:34:39;;;;;;;68.00;37.17;;;;;;;7.46;100.00;99834.69;1724380;83;21042;-66
2021/11/14 17:37:05;;;;;;;75.40;39.40;;;;;;;7.49;100.00;99834.66;1724391;83;21462;-68
2021/11/14 17:39:31;;;;;;;71.70;37.00;;;;;;;7.50;100.00;99838.39;1724305;83;21031;-65
2021/11/14 17:41:57;;;;;;;82.30;38.87;;;;;;;7.43;100.00;99838.53;1724233;83;21044;-68
2021/11/14 17:44:23;;;;;;;68.87;38.53;;;;;;;7.43;100.00;99837.18;1724056;83;21046;-69
2021/11/14 17:46:49;;;;;;;70.70;40.27;;;;;;;7.42;100.00;99839.66;1723936;83;20991;-65
2021/11/14 17:49:15;;;;;;;74.67;39.10;;;;;;;7.47;100.00;99848.98;1695283;83;21317;-66
2021/11/14 17:51:41;;;;;;;75.27;41.60;;;;;;;7.43;100.00;99837.98;1724027;83;21575;-67
2021/11/14 17:54:07;;;;;;;74.17;41.57;;;;;;;7.45;100.00;99843.09;1724130;83;21106;-67
2021/11/14 17:56:33;;;;;;;70.23;40.17;;;;;;;7.42;100.00;99853.14;1723947;83;21038;-67
2021/11/14 17:58:59;;;;;;;80.83;42.50;;;;;;;7.38;100.00;99852.94;1723958;83;21514;-67
2021/11/14 18:01:25;;;;;;;69.33;41.00;;;;;;;7.47;100.00;99855.19;1695493;83;21042;-67
2021/11/14 18:03:51;;;;;;;70.30;39.37;;;;;;;7.29;100.00;99825.02;1724295;83;21021;-68
2021/11/14 18:06:17;;;;;;;71.37;39.47;;;;;;;7.50;100.00;99855.16;1724264;83;22183;-67
2021/11/14 18:08:43;;;;;;;69.00;39.43;;;;;;;7.53;100.00;99860.77;1724032;83;21047;-69
2021/11/14 18:11:09;;;;;;;68.10;36.70;;;;;;;7.47;100.00;99861.13;1724069;83;21027;-66
2021/11/14 18:13:35;;;;;;;69.07;37.67;;;;;;;7.46;100.00;99857.63;1717460;83;21106;-65
2021/11/14 18:16:01;;;;;;;71.70;37.50;;;;;;;7.40;100.00;99858.83;1716629;83;21026;-68
2021/11/14 18:18:28;;;;;;;65.93;34.77;;;;;;;7.45;100.00;99860.10;1716633;83;20976;-68
2021/11/14 18:20:54;;;;;;;68.20;37.60;;;;;;;7.45;100.00;99860.10;1727677;82;21031;-68
2021/11/14 18:23:20;;;;;;;68.47;36.03;;;;;;;7.42;100.00;99859.35;1734553;82;21992;-67
2021/11/14 18:25:46;;;;;;;63.33;34.90;;;;;;;7.46;100.00;99869.00;1719519;82;20948;-68
2021/11/14 18:28:15;;;;;;;69.00;37.00;;;;;;;7.37;100.00;99865.38;1710542;84;21502;-69
2021/11/14 18:30:40;;;;;;;70.37;39.33;;;;;;;7.32;100.00;99868.14;1710573;84;21031;-67
2021/11/14 18:33:06;;;;;;;65.67;34.70;;;;;;;7.31;100.00;99874.09;1710442;84;21202;-68
2021/11/14 18:35:32;;;;;;;63.13;34.43;;;;;;;7.37;100.00;99873.47;1714107;83;21073;-68
2021/11/14 18:37:58;;;;;;;67.50;35.40;;;;;;;7.37;100.00;99877.52;1710675;84;21150;-68
2021/11/14 18:40:26;;;;;;;59.23;33.67;;;;;;;7.36;100.00;99876.71;1710573;84;21043;-66
2021/11/14 18:42:52;;;;;;;62.20;35.08;;;;;;;7.38;100.00;99875.88;1710622;84;21480;-70
2021/11/14 18:45:19;;;;;;;70.83;37.40;;;;;;;7.35;100.00;99879.14;1710479;84;21034;-68
2021/11/14 18:47:45;;;;;;;69.77;36.20;;;;;;;7.25;100.00;99880.67;1710689;84;21093;-67
2021/11/14 18:50:10;;;;;;;54.93;29.70;;;;;;;7.28;100.00;99882.78;1710689;84;21070;-68
2021/11/14 18:52:37;;;;;;;55.53;30.50;;;;;;;7.37;100.00;99876.97;1710279;84;21070;-68
2021/11/14 18:55:04;;;;;;;57.93;30.17;;;;;;;7.43;100.00;99882.52;1710603;84;21114;-69
2021/11/14 18:57:30;;;;;;;61.10;33.27;;;;;;;7.45;100.00;99883.59;1710385;84;21003;-68
2021/11/14 18:59:56;;;;;;;58.67;31.97;;;;;;;7.44;100.00;99885.48;1710710;83;21063;-69
2021/11/14 19:02:22;;;;;;;60.00;33.87;;;;;;;7.44;100.00;99881.43;1710508;84;21129;-68
2021/11/14 19:04:48;;;;;;;70.53;38.20;;;;;;;7.38;100.00;99885.33;1710644;84;21003;-68
2021/11/14 19:07:14;;;;;;;65.40;36.07;;;;;;;7.33;100.00;99884.59;1710536;84;21007;-65
2021/11/14 19:09:40;;;;;;;70.57;38.87;;;;;;;7.43;100.00;99885.22;1710508;84;21055;-67
2021/11/14 19:12:06;;;;;;;73.93;41.03;;;;;;;7.48;100.00;99889.19;1710670;83;21050;-67
2021/11/14 19:14:32;;;;;;;70.70;39.57;;;;;;;7.50;100.00;99888.91;1710917;83;21546;-68
2021/11/14 19:16:59;;;;;;;75.67;39.88;;;;;;;7.51;100.00;99885.09;1710669;83;20948;-67
2021/11/14 19:19:25;;;;;;;73.47;40.33;;;;;;;7.52;100.00;99881.30;1714307;83;22195;-67
2021/11/14 19:21:51;;;;;;;73.83;41.07;;;;;;;7.48;100.00;99885.69;1710372;83;21384;-67
2021/11/14 19:24:18;;;;;;;73.17;39.90;;;;;;;7.39;100.00;99888.26;1710745;84;21028;-66
2021/11/14 19:26:47;;;;;;;70.10;39.17;;;;;;;7.34;100.00;99889.71;1710522;84;21067;-66
2021/11/14 19:29:13;;;;;;;70.50;37.27;;;;;;;7.40;100.00;99885.81;1710674;84;21082;-66
2021/11/14 19:31:39;;;;;;;68.33;37.70;;;;;;;7.41;100.00;99894.72;1710696;84;21015;-68
2021/11/14 19:34:05;;;;;;;72.63;38.90;;;;;;;7.31;100.00;99896.25;1714377;83;20944;-66
2021/11/14 19:36:31;;;;;;;72.30;39.03;;;;;;;7.26;100.00;99900.63;1710608;83;21534;-66
2021/11/14 19:38:58;;;;;;;73.37;40.07;;;;;;;7.21;100.00;99906.10;1710558;83;21071;-65
2021/11/14 19:41:23;;;;;;;69.70;36.73;;;;;;;7.15;100.00;99899.73;1710785;84;20999;-67
2021/11/14 19:43:52;;;;;;;71.60;40.17;;;;;;;7.03;100.00;99900.73;1710534;84;21155;-67
2021/11/14 19:46:17;;;;;;;75.60;42.50;;;;;;;7.09;100.00;99904.94;1710515;84;21091;-70
2021/11/14 19:48:44;;;;;;;73.17;40.33;;;;;;;7.13;100.00;99909.46;1721719;82;21026;-68
2021/11/14 19:51:10;;;;;;;74.70;40.47;;;;;;;7.13;100.00;99905.96;1731991;82;21038;-68
2021/11/14 19:53:35;;;;;;;76.27;40.33;;;;;;;7.02;100.00;99915.30;1746255;82;21510;-66
2021/11/14 19:56:02;;;;;;;72.90;39.63;;;;;;;7.03;100.00;99914.22;1746227;82;21003;-67
2021/11/14 19:58:28;;;;;;;70.70;40.10;;;;;;;7.02;100.00;99913.41;1746063;82;21582;-68
2021/11/14 20:00:54;;;;;;;74.17;40.57;;;;;;;6.99;100.00;99918.05;1746194;82;21102;-66
2021/11/14 20:03:20;;;;;;;69.80;35.53;;;;;;;6.93;100.00;99916.53;1746209;82;21102;-68
2021/11/14 20:05:45;;;;;;;70.60;39.57;;;;;;;6.93;100.00;99919.77;1746380;82;21629;-66
2021/11/14 20:08:12;;;;;;;74.07;38.20;;;;;;;6.89;100.00;99924.14;1746168;82;21051;-67
2021/11/14 20:10:38;;;;;;;73.90;39.57;;;;;;;6.90;100.00;99921.14;1746086;82;21555;-66
2021/11/14 20:13:05;;;;;;;71.47;37.70;;;;;;;6.94;100.00;99920.00;1746077;82;21059;-68
2021/11/14 20:15:42;;;;;;;74.53;37.20;;;;;;;6.97;100.00;99915.40;1746084;82;21070;-68
2021/11/14 20:18:09;;;;;;;66.63;36.93;;;;;;;6.97;100.00;99927.53;1746145;82;21035;-68
2021/11/14 20:20:37;;;;;;;63.93;36.53;;;;;;;6.94;100.00;99915.41;1725546;82;21065;-67
2021/11/14 20:23:05;;;;;;;71.30;38.47;;;;;;;6.84;100.00;99914.22;1746115;82;21008;-67
2021/11/14 20:25:32;;;;;;;70.63;37.93;;;;;;;6.75;100.00;99911.91;1702676;82;21039;-69
2021/11/14 20:27:57;;;;;;;70.17;38.43;;;;;;;6.67;100.00;99913.94;1746376;82;21503;-66
2021/11/14 20:30:23;;;;;;;69.80;38.63;;;;;;;6.71;100.00;99917.66;1746251;82;21007;-67
2021/11/14 20:32:50;;;;;;;70.77;38.13;;;;;;;6.72;100.00;99911.16;1746115;82;21077;-68
2021/11/14 20:35:16;;;;;;;72.33;39.13;;;;;;;6.72;100.00;99914.66;1746286;82;21062;-68
2021/11/14 20:37:44;;;;;;;72.50;39.80;;;;;;;6.72;100.00;99920.59;1745929;82;21528;-65
2021/11/14 20:40:13;;;;;;;69.43;38.20;;;;;;;6.70;100.00;99925.48;1746087;82;21122;-64
2021/11/14 20:42:40;;;;;;;76.13;37.90;;;;;;;6.66;100.00;99935.25;1746133;82;21007;-67
2021/11/14 20:45:07;;;;;;;71.57;38.57;;;;;;;6.65;100.00;99937.13;1746081;82;21075;-65
2021/11/14 20:47:33;;;;;;;68.90;37.20;;;;;;;6.67;100.00;99945.72;1746105;82;20988;-66
2021/11/14 20:49:59;;;;;;;71.03;37.73;;;;;;;6.68;100.00;99941.13;1746523;82;21528;-66
2021/11/14 20:52:25;;;;;;;73.47;40.83;;;;;;;6.61;100.00;99942.84;1746179;82;21481;-67
2021/11/14 20:54:51;;;;;;;74.93;39.27;;;;;;;6.53;100.00;99939.44;1746232;82;21014;-67
2021/11/14 20:57:17;;;;;;;75.00;40.37;;;;;;;6.57;100.00;99932.38;1746098;82;21587;-65
2021/11/14 20:59:43;;;;;;;72.00;38.10;;;;;;;6.63;100.00;99939.33;1746200;82;21007;-65
2021/11/14 21:02:09;;;;;;;74.53;38.00;;;;;;;6.63;100.00;99935.83;1734477;82;21019;-68
2021/11/14 21:04:36;;;;;;;71.33;39.77;;;;;;;6.63;100.00;99935.29;1681835;85;21107;-68
2021/11/14 21:07:02;;;;;;;68.43;35.53;;;;;;;6.65;100.00;99944.41;1716454;83;21133;-67
2021/11/14 21:09:28;;;;;;;66.97;38.63;;;;;;;6.67;100.00;99940.33;1715951;82;21051;-66
2021/11/14 21:11:58;;;;;;;71.73;38.33;;;;;;;6.60;100.00;99945.27;1710731;84;21050;-66
2021/11/14 21:14:26;;;;;;;77.63;41.77;;;;;;;6.55;100.00;99949.95;1721287;83;21039;-66
2021/11/14 21:16:52;;;;;;;70.77;36.07;;;;;;;6.54;100.00;99949.68;1724070;83;21066;-64
2021/11/14 21:19:23;;;;;;;70.37;39.33;;;;;;;6.56;100.00;99948.29;1724130;83;21495;-64
2021/11/14 21:21:46;;;;;;;74.90;38.33;;;;;;;6.64;100.00;99948.20;1723431;83;21061;-67
2021/11/14 21:24:12;;;;;;;81.17;39.40;;;;;;;6.66;100.00;99950.07;1723999;83;21113;-68
2021/11/14 21:26:38;;;;;;;78.63;40.33;;;;;;;6.66;100.00;99952.77;1723678;82;21105;-65
2021/11/14 21:29:04;;;;;;;76.43;37.67;;;;;;;6.70;100.00;99953.80;1723882;83;21624;-65
2021/11/14 21:31:29;;;;;;;68.97;35.87;;;;;;;6.68;100.00;99955.96;1723768;83;21027;-67
2021/11/14 21:34:02;;;;;;;73.70;43.60;;;;;;;6.62;100.00;99957.94;1724016;83;21273;-64
2021/11/14 21:39:14;;;;;;;79.27;41.93;;;;;;;6.49;100.00;99958.62;1736468;81;21089;-65
2021/11/14 21:41:40;;;;;;;73.67;39.30;;;;;;;6.53;100.00;99965.05;1756877;81;21002;-67
2021/11/14 21:44:07;;;;;;;76.50;39.37;;;;;;;6.53;100.00;99959.66;1759650;81;21495;-64
2021/11/14 21:46:34;;;;;;;74.93;39.00;;;;;;;6.55;100.00;99961.53;1751457;81;21167;-67
2021/11/14 21:49:00;;;;;;;76.57;39.70;;;;;;;6.60;100.00;99963.34;1729310;81;20974;-59
2021/11/14 21:51:26;;;;;;;79.30;41.97;;;;;;;6.56;100.00;99969.86;1753114;81;20994;-67
2021/11/14 21:53:53;;;;;;;78.43;40.90;;;;;;;6.58;100.00;99964.19;1753866;81;21075;-64
2021/11/14 21:56:19;;;;;;;81.13;44.20;;;;;;;6.61;100.00;99969.80;1756524;81;21032;-67
2021/11/14 21:58:45;;;;;;;73.97;39.20;;;;;;;6.66;100.00;99968.40;1748392;81;20978;-64
2021/11/14 22:01:11;;;;;;;75.37;42.47;;;;;;;6.61;100.00;99969.80;1737226;81;24156;-67
